Time;durP1;ratioP1;P1;durP2;ratioP2;P2;SDS_P1;SDS_P2;PMS_P1;PMS_P2;Temp;Humidity;BMP_temperature;BMP_pressure;BME280_temperature;BME280_humidity;BME280_pressure;Samples;Min_cycle;Max_cycle;Signal;HPM_P1;HPM_P2
2022/01/11 00:01:14;;;;;;;8.15;5.65;;;16.40;99.90;;;;;;4230496;28;20271;-72
2022/01/11 00:03:18;;;;;;;7.78;5.15;;;16.40;99.90;;;;;;4230382;28;20217;-71
2022/01/11 00:05:24;;;;;;;8.10;5.47;;;16.40;99.90;;;;;;4230164;28;20225;-71
2022/01/11 00:07:29;;;;;;;8.95;6.03;;;16.40;99.90;;;;;;4230210;28;20217;-71
2022/01/11 00:09:38;;;;;;;8.10;5.10;;;16.40;99.90;;;;;;4227154;28;20222;-72
2022/01/11 00:11:40;;;;;;;7.65;5.47;;;16.40;99.90;;;;;;4218052;28;20244;-71
2022/01/11 00:13:43;;;;;;;6.90;5.03;;;16.40;99.90;;;;;;4224220;28;20279;-71
2022/01/11 00:15:48;;;;;;;6.70;4.93;;;16.40;99.90;;;;;;4230426;28;20213;-71
2022/01/11 00:17:51;;;;;;;7.27;5.30;;;16.40;99.90;;;;;;4230658;28;20210;-71
2022/01/11 00:19:53;;;;;;;7.50;5.10;;;16.40;99.90;;;;;;4221171;28;20211;-71
2022/01/11 00:21:55;;;;;;;7.15;5.63;;;16.30;99.90;;;;;;4213636;28;20214;-71
2022/01/11 00:26:17;;;;;;;6.32;4.90;;;16.30;99.90;;;;;;4230641;28;20190;-71
2022/01/11 00:28:21;;;;;;;7.30;5.22;;;16.30;99.90;;;;;;4229812;28;20219;-71
2022/01/11 00:30:29;;;;;;;7.60;4.95;;;16.30;99.90;;;;;;4229524;28;20306;-71
2022/01/11 00:32:41;;;;;;;6.07;4.93;;;16.30;99.90;;;;;;4230345;28;20213;-71
2022/01/11 00:34:50;;;;;;;6.75;5.00;;;16.30;99.90;;;;;;4230144;28;20282;-71
2022/01/11 00:36:52;;;;;;;6.25;4.82;;;16.30;99.90;;;;;;4230234;28;20213;-71
2022/01/11 00:38:54;;;;;;;5.88;4.70;;;16.30;99.90;;;;;;4214057;28;20222;-71
2022/01/11 00:40:58;;;;;;;6.60;4.72;;;16.30;99.90;;;;;;4239388;27;20209;-71
2022/01/11 00:43:01;;;;;;;6.75;5.60;;;16.30;99.90;;;;;;4245744;27;20262;-72
2022/01/11 00:45:04;;;;;;;7.30;5.05;;;16.30;99.90;;;;;;4244544;27;20216;-71
2022/01/11 00:47:07;;;;;;;6.00;5.25;;;16.30;99.90;;;;;;4226193;28;20225;-71
2022/01/11 00:49:10;;;;;;;7.55;4.78;;;16.20;99.90;;;;;;4229256;28;20722;-71
2022/01/11 00:51:13;;;;;;;7.43;5.13;;;16.20;99.90;;;;;;4229474;28;20274;-71
2022/01/11 00:53:16;;;;;;;7.20;5.13;;;16.30;99.90;;;;;;4229914;28;20274;-71
2022/01/11 00:55:19;;;;;;;7.03;5.07;;;16.20;99.90;;;;;;4230111;28;20214;-71
2022/01/11 00:57:21;;;;;;;6.45;5.07;;;16.20;99.90;;;;;;4229520;28;20205;-71
2022/01/11 00:59:23;;;;;;;7.80;4.97;;;16.20;99.90;;;;;;4229550;28;20268;-71
2022/01/11 01:01:27;;;;;;;8.20;5.28;;;16.20;99.90;;;;;;4229214;28;20263;-71
2022/01/11 01:03:29;;;;;;;7.50;4.65;;;16.20;99.90;;;;;;4217268;28;20707;-71
2022/01/11 01:05:34;;;;;;;6.40;4.88;;;16.20;99.90;;;;;;4228513;28;20670;-71
2022/01/11 01:07:37;;;;;;;6.72;4.57;;;16.20;99.90;;;;;;4229671;28;20287;-71
2022/01/11 01:09:48;;;;;;;7.10;4.78;;;16.20;99.90;;;;;;4225017;28;20704;-71
2022/01/11 01:11:51;;;;;;;6.07;4.53;;;16.20;99.90;;;;;;4212697;28;20217;-71
2022/01/11 01:13:53;;;;;;;6.82;5.22;;;16.20;99.90;;;;;;4213107;28;20214;-71
2022/01/11 01:15:57;;;;;;;7.20;4.88;;;16.10;99.90;;;;;;4213107;28;20540;-71
2022/01/11 01:18:00;;;;;;;6.07;4.53;;;16.10;99.90;;;;;;4217644;28;20217;-71
2022/01/11 01:20:03;;;;;;;6.63;4.40;;;16.10;99.90;;;;;;4223282;28;20279;-71
2022/01/11 01:22:07;;;;;;;6.18;4.45;;;16.10;99.90;;;;;;4218295;28;20209;-71
2022/01/11 01:24:12;;;;;;;6.63;4.53;;;16.10;99.90;;;;;;4226632;28;20270;-71
2022/01/11 01:26:17;;;;;;;7.03;5.25;;;16.10;99.90;;;;;;4229660;28;20209;-71
2022/01/11 01:28:20;;;;;;;5.47;4.47;;;16.10;99.90;;;;;;4229517;28;20217;-71
2022/01/11 01:30:22;;;;;;;6.18;4.85;;;16.10;99.90;;;;;;4229266;28;20286;-71
2022/01/11 01:32:25;;;;;;;7.85;4.72;;;16.10;99.90;;;;;;4229473;28;20266;-71
2022/01/11 01:34:28;;;;;;;6.28;4.45;;;16.10;99.90;;;;;;4229620;28;20334;-71
2022/01/11 01:36:30;;;;;;;4.88;4.35;;;16.10;99.90;;;;;;4224569;28;20214;-71
2022/01/11 01:38:34;;;;;;;5.18;4.07;;;16.10;99.90;;;;;;4225267;28;20210;-72
2022/01/11 01:40:41;;;;;;;5.10;4.10;;;16.10;99.90;;;;;;4229595;28;20227;-71
2022/01/11 01:42:43;;;;;;;5.30;4.00;;;16.10;99.90;;;;;;4224717;28;20243;-70
2022/01/11 01:44:48;;;;;;;5.22;4.20;;;16.10;99.90;;;;;;4219993;28;20206;-71
2022/01/11 01:46:50;;;;;;;5.07;4.22;;;16.10;99.90;;;;;;4212429;28;20206;-71
2022/01/11 01:48:55;;;;;;;5.72;4.38;;;16.00;99.90;;;;;;4212389;28;20218;-71
2022/01/11 01:50:58;;;;;;;6.65;4.50;;;16.00;99.90;;;;;;4212250;28;20652;-72
2022/01/11 01:53:02;;;;;;;6.25;4.40;;;16.00;99.90;;;;;;4212416;28;20210;-71
2022/01/11 01:55:08;;;;;;;7.18;4.65;;;16.00;99.90;;;;;;4212028;28;20230;-71
2022/01/11 01:57:10;;;;;;;5.80;4.23;;;16.10;99.90;;;;;;4212484;28;20210;-71
2022/01/11 01:59:13;;;;;;;5.97;4.35;;;16.10;99.90;;;;;;4212276;28;20218;-71
2022/01/11 02:01:16;;;;;;;5.17;3.83;;;16.00;99.90;;;;;;4214727;28;20674;-71
2022/01/11 02:03:25;;;;;;;6.20;4.20;;;16.00;99.90;;;;;;4225814;28;20217;-71
2022/01/11 02:05:28;;;;;;;5.22;4.25;;;16.00;99.90;;;;;;4212617;28;20259;-71
2022/01/11 02:07:30;;;;;;;5.32;4.40;;;16.00;99.90;;;;;;4225036;28;20209;-72
2022/01/11 02:09:32;;;;;;;4.72;3.90;;;16.00;99.90;;;;;;4212735;28;20207;-71
2022/01/11 02:11:36;;;;;;;5.18;3.90;;;16.00;99.90;;;;;;4225608;28;20238;-71
2022/01/11 02:13:40;;;;;;;5.35;3.97;;;16.00;99.90;;;;;;4229252;28;20221;-71
2022/01/11 02:15:42;;;;;;;5.40;3.80;;;16.00;99.90;;;;;;4229028;28;20267;-72
2022/01/11 02:17:45;;;;;;;5.67;4.20;;;15.90;99.90;;;;;;4232061;28;20218;-72
2022/01/11 02:19:48;;;;;;;5.65;4.13;;;15.90;99.90;;;;;;4231415;27;20269;-71
2022/01/11 02:21:51;;;;;;;4.55;3.95;;;15.90;99.90;;;;;;4223309;28;20206;-71
2022/01/11 02:23:54;;;;;;;5.25;3.80;;;15.90;99.90;;;;;;4215616;28;20218;-71
2022/01/11 02:25:57;;;;;;;4.65;3.80;;;15.90;99.90;;;;;;4215476;28;20222;-71
2022/01/11 02:27:59;;;;;;;5.32;4.05;;;15.90;99.90;;;;;;4220511;27;20218;-71
2022/01/11 02:30:02;;;;;;;5.57;4.50;;;15.90;99.90;;;;;;4228614;28;20214;-71
2022/01/11 02:32:05;;;;;;;5.15;3.95;;;15.90;99.90;;;;;;4231702;28;20310;-71
2022/01/11 02:34:07;;;;;;;5.40;3.92;;;15.90;99.90;;;;;;4232228;28;20213;-71
2022/01/11 02:36:13;;;;;;;5.95;4.05;;;15.90;99.90;;;;;;4230999;28;20796;-71
2022/01/11 02:38:17;;;;;;;5.72;3.97;;;15.90;99.90;;;;;;4215959;28;20214;-71
2022/01/11 02:40:19;;;;;;;7.20;4.10;;;15.90;99.90;;;;;;4229774;27;20214;-71
2022/01/11 02:42:23;;;;;;;6.60;4.05;;;15.90;99.90;;;;;;4215049;28;20217;-71
2022/01/11 02:44:25;;;;;;;5.30;3.97;;;15.90;99.90;;;;;;4215077;28;20218;-71
2022/01/11 02:46:29;;;;;;;4.57;3.60;;;15.90;99.90;;;;;;4214936;28;20663;-71
2022/01/11 02:48:31;;;;;;;4.85;4.10;;;15.90;99.90;;;;;;4215036;28;20218;-71
2022/01/11 02:50:34;;;;;;;8.70;4.77;;;15.90;99.90;;;;;;4215072;28;20269;-71
2022/01/11 02:52:36;;;;;;;4.85;3.97;;;15.90;99.90;;;;;;4215245;28;20214;-71
2022/01/11 02:54:40;;;;;;;5.70;3.97;;;15.80;99.90;;;;;;4215257;28;20218;-71
2022/01/11 02:56:42;;;;;;;5.10;3.95;;;15.90;99.90;;;;;;4215093;28;20210;-71
2022/01/11 02:58:45;;;;;;;4.72;3.88;;;15.90;99.90;;;;;;4224015;27;20690;-71
2022/01/11 03:00:47;;;;;;;5.80;3.83;;;15.80;99.90;;;;;;4229957;28;20214;-71
2022/01/11 03:02:50;;;;;;;5.90;3.90;;;15.80;99.90;;;;;;4230609;28;20221;-71
2022/01/11 03:04:52;;;;;;;4.97;3.60;;;15.80;99.90;;;;;;4231098;28;20226;-71
2022/01/11 03:06:56;;;;;;;5.80;4.18;;;15.80;99.90;;;;;;4231449;28;20615;-71
2022/01/11 03:08:59;;;;;;;5.65;4.43;;;15.80;99.90;;;;;;4220426;27;20260;-71
2022/01/11 03:11:05;;;;;;;5.68;4.20;;;15.80;99.90;;;;;;4228841;27;20279;-72
2022/01/11 03:13:09;;;;;;;5.10;3.83;;;15.80;99.90;;;;;;4231268;28;20317;-71
2022/01/11 03:15:13;;;;;;;5.93;3.70;;;15.80;99.90;;;;;;4229554;27;24521;-71
2022/01/11 03:17:16;;;;;;;4.25;3.33;;;15.80;99.90;;;;;;4227481;27;20255;-71
2022/01/11 03:19:18;;;;;;;5.20;3.80;;;15.80;99.90;;;;;;4229984;28;20662;-71
2022/01/11 03:21:20;;;;;;;4.38;3.83;;;15.80;99.90;;;;;;4230945;28;20221;-71
2022/01/11 03:23:24;;;;;;;5.43;3.78;;;15.80;99.90;;;;;;4231526;28;20594;-71
2022/01/11 03:25:26;;;;;;;6.13;4.25;;;15.80;99.90;;;;;;4231460;28;20210;-72
2022/01/11 03:27:30;;;;;;;5.63;3.50;;;15.80;99.90;;;;;;4230461;28;20239;-71
2022/01/11 03:29:32;;;;;;;4.73;3.90;;;15.80;99.90;;;;;;4230892;28;20214;-70
2022/01/11 03:31:36;;;;;;;4.63;3.70;;;15.80;99.90;;;;;;4230704;28;20291;-71
2022/01/11 03:33:38;;;;;;;5.70;4.20;;;15.80;99.90;;;;;;4227087;28;20214;-71
2022/01/11 03:35:42;;;;;;;4.38;3.78;;;15.80;99.90;;;;;;4220696;28;20214;-71
2022/01/11 03:37:46;;;;;;;4.40;3.80;;;15.80;99.90;;;;;;4230854;28;20235;-71
2022/01/11 03:39:49;;;;;;;5.43;4.23;;;15.80;99.90;;;;;;4231198;28;20210;-71
2022/01/11 03:41:51;;;;;;;5.38;3.83;;;15.70;99.90;;;;;;4230984;28;20210;-70
2022/01/11 03:43:55;;;;;;;3.90;3.40;;;15.70;99.90;;;;;;4230956;28;20235;-71
2022/01/11 03:45:58;;;;;;;4.83;4.17;;;15.70;99.90;;;;;;4231069;28;20210;-71
2022/01/11 03:48:02;;;;;;;6.13;3.90;;;15.70;99.90;;;;;;4230513;28;20239;-71
2022/01/11 03:50:06;;;;;;;5.23;3.80;;;15.70;99.90;;;;;;4230639;28;20217;-71
2022/01/11 03:52:08;;;;;;;5.95;3.80;;;15.70;99.90;;;;;;4221431;28;20245;-71
2022/01/11 03:54:14;;;;;;;5.50;3.90;;;15.70;99.90;;;;;;4214358;28;20268;-71
2022/01/11 03:56:22;;;;;;;4.93;3.60;;;15.70;99.90;;;;;;4220662;27;20202;-71
2022/01/11 03:58:26;;;;;;;5.70;4.07;;;15.70;99.90;;;;;;4230504;28;20731;-71
2022/01/11 04:00:30;;;;;;;4.85;3.33;;;15.70;99.90;;;;;;4231030;28;20209;-71
2022/01/11 04:02:32;;;;;;;5.10;3.78;;;15.70;99.90;;;;;;4230829;28;20210;-71
2022/01/11 04:04:35;;;;;;;4.53;3.75;;;15.70;99.90;;;;;;4230409;28;20210;-71
2022/01/11 04:06:38;;;;;;;3.87;3.47;;;15.70;99.90;;;;;;4230558;28;20266;-71
2022/01/11 04:08:40;;;;;;;4.93;3.30;;;15.70;99.90;;;;;;4230154;28;20263;-71
2022/01/11 04:10:45;;;;;;;4.72;3.70;;;15.70;99.90;;;;;;4222858;27;20550;-71
2022/01/11 04:12:48;;;;;;;4.20;3.73;;;15.70;99.90;;;;;;4220732;28;20290;-72
2022/01/11 04:14:51;;;;;;;4.90;3.53;;;15.70;99.90;;;;;;4230100;28;20218;-71
2022/01/11 04:16:55;;;;;;;5.13;3.35;;;15.70;99.90;;;;;;4230246;28;20218;-71
2022/01/11 04:18:57;;;;;;;4.50;3.43;;;15.70;99.90;;;;;;4230056;28;20222;-71
2022/01/11 04:20:59;;;;;;;5.13;3.80;;;15.70;99.90;;;;;;4230140;28;20238;-72
2022/01/11 04:23:02;;;;;;;4.30;3.60;;;15.70;99.90;;;;;;4230127;28;20213;-71
2022/01/11 04:25:05;;;;;;;5.30;4.00;;;15.60;99.90;;;;;;4229922;28;20214;-71
2022/01/11 04:27:07;;;;;;;4.27;3.40;;;15.70;99.90;;;;;;4229730;28;20266;-71
2022/01/11 04:29:10;;;;;;;4.70;3.30;;;15.60;99.90;;;;;;4228506;27;20270;-71
2022/01/11 04:31:12;;;;;;;4.97;3.60;;;15.60;99.90;;;;;;4226349;27;20234;-71
2022/01/11 04:33:16;;;;;;;4.13;3.22;;;15.60;99.90;;;;;;4230187;28;20234;-71
2022/01/11 04:35:18;;;;;;;4.97;3.70;;;15.60;99.90;;;;;;4230028;28;20217;-71
2022/01/11 04:37:20;;;;;;;5.22;3.53;;;15.60;99.90;;;;;;4218624;28;20222;-71
2022/01/11 04:39:23;;;;;;;3.63;3.07;;;15.60;99.90;;;;;;4213169;28;20631;-71
2022/01/11 04:41:25;;;;;;;4.63;3.27;;;15.60;99.90;;;;;;4247052;27;20216;-71
2022/01/11 04:43:28;;;;;;;5.22;3.40;;;15.60;99.90;;;;;;4242666;27;20217;-71
2022/01/11 04:45:30;;;;;;;4.97;3.60;;;15.50;99.90;;;;;;4230126;28;20267;-71
2022/01/11 04:47:33;;;;;;;4.60;3.63;;;15.60;99.90;;;;;;4225119;28;20251;-71
2022/01/11 04:49:37;;;;;;;4.93;3.33;;;15.60;99.90;;;;;;4220042;28;20279;-71
2022/01/11 04:51:39;;;;;;;4.23;3.40;;;15.60;99.90;;;;;;4213081;28;20267;-71
2022/01/11 04:53:41;;;;;;;4.30;3.90;;;15.60;99.90;;;;;;4213137;28;20348;-71
2022/01/11 04:55:44;;;;;;;4.40;3.30;;;15.60;99.90;;;;;;4214915;27;20205;-71
2022/01/11 04:57:46;;;;;;;6.07;3.50;;;15.50;99.90;;;;;;4215252;27;20214;-71
2022/01/11 04:59:49;;;;;;;4.47;3.30;;;15.60;99.90;;;;;;4228424;27;20266;-71
2022/01/11 05:01:51;;;;;;;5.13;3.40;;;15.60;99.90;;;;;;4229723;28;20274;-71
2022/01/11 05:03:53;;;;;;;5.93;4.33;;;15.60;99.90;;;;;;4229810;28;20267;-71
2022/01/11 05:05:57;;;;;;;6.53;3.80;;;15.60;99.90;;;;;;4230142;28;20225;-71
2022/01/11 05:08:01;;;;;;;4.47;3.37;;;15.60;99.90;;;;;;4226064;27;20233;-71
2022/01/11 05:10:05;;;;;;;4.00;3.47;;;15.50;99.90;;;;;;4213157;28;20210;-71
2022/01/11 05:12:09;;;;;;;4.63;3.70;;;15.50;99.90;;;;;;4213267;28;20238;-71
2022/01/11 05:14:11;;;;;;;4.30;3.47;;;15.50;99.90;;;;;;4212929;28;20245;-71
2022/01/11 05:16:14;;;;;;;4.50;3.40;;;15.50;99.90;;;;;;4212798;28;20222;-71
2022/01/11 05:18:17;;;;;;;5.13;3.53;;;15.50;99.90;;;;;;4220295;28;20222;-71
2022/01/11 05:20:20;;;;;;;4.40;3.50;;;15.50;99.90;;;;;;4229370;28;20217;-71
2022/01/11 05:22:24;;;;;;;5.10;3.70;;;15.50;99.90;;;;;;4229605;28;20556;-71
2022/01/11 05:24:26;;;;;;;4.30;3.17;;;15.50;99.90;;;;;;4229883;28;20222;-71
2022/01/11 05:26:28;;;;;;;4.50;3.50;;;15.50;99.90;;;;;;4226679;28;20601;-71
2022/01/11 05:28:33;;;;;;;5.30;3.40;;;15.50;99.90;;;;;;4227690;28;20270;-71
2022/01/11 05:30:35;;;;;;;3.90;3.40;;;15.50;99.90;;;;;;4229316;28;20707;-71
2022/01/11 05:32:38;;;;;;;5.20;3.97;;;15.50;99.90;;;;;;4229458;28;20259;-71
2022/01/11 05:34:40;;;;;;;4.53;3.57;;;15.50;99.90;;;;;;4224435;28;20560;-71
2022/01/11 05:36:42;;;;;;;7.03;3.73;;;15.50;99.90;;;;;;4212724;28;20214;-71
2022/01/11 05:38:46;;;;;;;4.80;3.43;;;15.50;99.90;;;;;;4212744;28;20271;-71
2022/01/11 05:40:50;;;;;;;3.80;3.27;;;15.40;99.90;;;;;;4235980;28;20209;-71
2022/01/11 05:42:52;;;;;;;3.90;3.30;;;15.40;99.90;;;;;;4246235;28;20269;-71
2022/01/11 05:44:55;;;;;;;4.70;3.53;;;15.40;99.90;;;;;;4227504;28;20295;-71
2022/01/11 05:46:57;;;;;;;4.23;3.50;;;15.40;99.90;;;;;;4225011;28;20274;-71
2022/01/11 05:49:00;;;;;;;5.17;4.03;;;15.40;99.90;;;;;;4212868;28;20275;-71
2022/01/11 05:51:02;;;;;;;5.13;3.70;;;15.50;99.90;;;;;;4213095;28;20275;-71
2022/01/11 05:53:04;;;;;;;4.77;3.00;;;15.50;99.90;;;;;;4232241;28;20295;-71
2022/01/11 05:55:10;;;;;;;4.60;3.27;;;15.30;99.90;;;;;;4232543;28;20620;-71
2022/01/11 05:57:12;;;;;;;5.03;3.80;;;15.10;99.90;;;;;;4232367;28;20225;-71
2022/01/11 05:59:15;;;;;;;5.33;3.67;;;15.00;99.90;;;;;;4232691;28;20210;-71
2022/01/11 06:01:17;;;;;;;4.70;3.53;;;15.10;99.90;;;;;;4232598;28;20738;-72
2022/01/11 06:03:19;;;;;;;4.50;3.30;;;15.30;99.90;;;;;;4228848;27;20217;-71
2022/01/11 06:05:23;;;;;;;4.77;3.37;;;15.40;99.90;;;;;;4222902;28;20259;-71
2022/01/11 06:07:26;;;;;;;5.07;3.73;;;15.50;99.90;;;;;;4215507;28;20257;-71
2022/01/11 06:09:28;;;;;;;5.40;3.45;;;15.60;99.90;;;;;;4227344;28;21002;-71
2022/01/11 06:11:32;;;;;;;4.78;3.70;;;15.70;99.90;;;;;;4232451;28;20237;-71
2022/01/11 06:13:36;;;;;;;4.93;3.87;;;15.70;99.90;;;;;;4232299;28;20237;-71
2022/01/11 06:15:38;;;;;;;6.00;4.17;;;15.80;99.90;;;;;;4232360;28;20274;-71
2022/01/11 06:17:40;;;;;;;4.53;3.45;;;15.70;99.90;;;;;;4232735;28;20217;-72
2022/01/11 06:19:43;;;;;;;5.60;4.10;;;15.80;99.90;;;;;;4230832;28;20225;-71
2022/01/11 06:21:45;;;;;;;5.93;3.97;;;15.90;99.90;;;;;;4224537;28;20210;-71
2022/01/11 06:23:48;;;;;;;4.83;3.83;;;15.90;99.90;;;;;;4226854;28;20599;-71
2022/01/11 06:25:50;;;;;;;6.40;4.30;;;15.90;99.90;;;;;;4231735;28;20221;-71
2022/01/11 06:27:54;;;;;;;6.20;4.40;;;15.90;99.90;;;;;;4232472;28;20662;-71
2022/01/11 06:29:56;;;;;;;5.43;3.90;;;15.80;99.90;;;;;;4232381;28;20213;-71
2022/01/11 06:31:58;;;;;;;4.37;3.70;;;15.90;99.90;;;;;;4232118;28;20234;-71
2022/01/11 06:34:01;;;;;;;4.90;3.95;;;15.90;99.90;;;;;;4232117;28;20679;-71
2022/01/11 06:36:09;;;;;;;5.88;4.25;;;15.90;99.90;;;;;;4231672;28;20213;-71
2022/01/11 06:38:12;;;;;;;5.15;4.05;;;15.90;99.90;;;;;;4216130;28;20658;-71
2022/01/11 06:40:17;;;;;;;5.47;4.32;;;15.90;99.90;;;;;;4226919;27;20214;-71
2022/01/11 06:42:20;;;;;;;6.50;4.47;;;16.00;99.90;;;;;;4221933;28;20268;-71
2022/01/11 06:44:23;;;;;;;4.88;4.05;;;16.00;99.90;;;;;;4227470;27;20250;-71
2022/01/11 06:46:26;;;;;;;5.43;3.87;;;16.00;99.90;;;;;;4214419;27;20248;-71
2022/01/11 06:48:29;;;;;;;4.93;3.78;;;16.00;99.90;;;;;;4232986;27;20621;-71
2022/01/11 06:50:31;;;;;;;5.18;4.22;;;16.10;99.90;;;;;;4231036;28;20217;-71
2022/01/11 06:52:33;;;;;;;5.60;3.90;;;16.00;99.90;;;;;;4230992;28;20286;-71
2022/01/11 06:54:35;;;;;;;5.57;4.07;;;16.00;99.90;;;;;;4230762;28;20271;-71
2022/01/11 06:56:38;;;;;;;5.25;4.07;;;16.10;99.90;;;;;;4227159;27;20222;-71
2022/01/11 06:58:40;;;;;;;5.25;3.83;;;16.10;99.90;;;;;;4221333;28;20244;-71
2022/01/11 07:00:44;;;;;;;5.38;3.92;;;16.10;99.90;;;;;;4229258;28;20225;-71
2022/01/11 07:02:49;;;;;;;6.45;4.30;;;16.10;99.90;;;;;;4231909;28;20727;-71
2022/01/11 07:04:52;;;;;;;5.32;3.85;;;16.10;99.90;;;;;;4231501;28;20263;-71
2022/01/11 07:06:54;;;;;;;6.78;4.00;;;16.10;99.90;;;;;;4231824;28;20555;-70
2022/01/11 07:08:57;;;;;;;5.57;3.90;;;16.10;99.90;;;;;;4231454;28;20214;-71
2022/01/11 07:10:59;;;;;;;5.10;4.10;;;16.10;99.90;;;;;;4231468;28;20214;-71
2022/01/11 07:13:02;;;;;;;6.40;4.25;;;16.10;99.90;;;;;;4231904;28;20551;-71
2022/01/11 07:15:05;;;;;;;4.65;3.65;;;16.20;99.90;;;;;;4225279;27;20209;-71
2022/01/11 07:17:09;;;;;;;4.88;3.63;;;16.10;99.90;;;;;;4228742;28;20687;-72
2022/01/11 07:19:11;;;;;;;5.28;3.90;;;16.20;99.90;;;;;;4231072;28;20214;-71
2022/01/11 07:21:14;;;;;;;6.13;3.43;;;16.20;99.90;;;;;;4231083;28;20341;-71
2022/01/11 07:23:16;;;;;;;7.28;4.15;;;16.10;99.90;;;;;;4231413;28;20559;-71
2022/01/11 07:25:18;;;;;;;6.25;4.43;;;16.20;99.90;;;;;;4231060;28;20239;-71
2022/01/11 07:27:21;;;;;;;6.53;3.60;;;16.20;99.90;;;;;;4231486;28;20210;-71
2022/01/11 07:29:23;;;;;;;5.20;3.72;;;16.20;99.90;;;;;;4231433;28;20266;-71
2022/01/11 07:31:26;;;;;;;6.57;4.18;;;16.20;99.90;;;;;;4229278;28;20233;-71
2022/01/11 07:33:30;;;;;;;3.92;3.50;;;16.20;99.90;;;;;;4220298;28;20234;-71
2022/01/11 07:35:33;;;;;;;4.70;3.47;;;16.30;99.90;;;;;;4224711;27;20237;-71
2022/01/11 07:37:35;;;;;;;4.47;3.67;;;16.30;99.90;;;;;;4215361;28;20218;-71
2022/01/11 07:39:37;;;;;;;4.97;4.20;;;16.30;99.90;;;;;;4230679;28;20267;-71
2022/01/11 07:41:40;;;;;;;5.90;3.10;;;16.20;99.90;;;;;;4231250;28;20255;-71
2022/01/11 07:43:42;;;;;;;3.97;3.28;;;16.30;99.90;;;;;;4230973;28;20218;-71
2022/01/11 07:45:45;;;;;;;4.43;3.53;;;16.30;99.90;;;;;;4231151;27;20263;-71
2022/01/11 07:47:47;;;;;;;5.57;4.20;;;16.30;99.90;;;;;;4230913;28;20226;-71
2022/01/11 07:49:51;;;;;;;5.33;3.87;;;16.30;99.90;;;;;;4230782;28;20221;-71
2022/01/11 07:51:54;;;;;;;5.35;3.72;;;16.30;99.90;;;;;;4215520;27;20218;-71
2022/01/11 07:53:56;;;;;;;6.35;3.90;;;16.30;99.90;;;;;;4224466;28;20238;-71
2022/01/11 07:55:58;;;;;;;8.35;4.05;;;16.30;99.90;;;;;;4229365;28;20658;-71
2022/01/11 07:58:01;;;;;;;6.22;3.80;;;16.30;99.90;;;;;;4225768;28;20214;-71
2022/01/11 08:00:07;;;;;;;6.22;4.22;;;16.60;99.90;;;;;;4223399;28;20638;-71
2022/01/11 08:02:09;;;;;;;4.78;3.92;;;16.80;99.90;;;;;;4225205;27;20218;-71
2022/01/11 08:04:12;;;;;;;4.78;3.50;;;17.20;99.90;;;;;;4227914;27;20210;-71
2022/01/11 08:06:16;;;;;;;4.90;3.38;;;17.50;99.90;;;;;;4227120;28;20266;-71
2022/01/11 08:08:18;;;;;;;4.32;3.22;;;17.70;99.90;;;;;;4225540;27;20222;-72
2022/01/11 08:10:20;;;;;;;4.97;3.50;;;17.90;99.90;;;;;;4229364;27;20251;-71
2022/01/11 08:12:23;;;;;;;4.85;3.17;;;18.00;99.90;;;;;;4224196;28;20225;-71
2022/01/11 08:14:26;;;;;;;5.72;3.20;;;18.10;99.90;;;;;;4223810;28;20237;-71
2022/01/11 08:16:28;;;;;;;4.15;3.13;;;18.20;99.90;;;;;;4222036;28;20635;-71
2022/01/11 08:18:30;;;;;;;7.32;3.80;;;18.20;99.90;;;;;;4227294;27;20662;-71
2022/01/11 08:20:33;;;;;;;3.22;2.88;;;18.30;99.90;;;;;;4226464;28;20275;-71
2022/01/11 08:22:36;;;;;;;4.03;3.17;;;18.40;99.90;;;;;;4228294;28;20213;-71
2022/01/11 08:24:39;;;;;;;3.45;3.15;;;18.50;99.90;;;;;;4225993;28;20708;-71
2022/01/11 08:26:41;;;;;;;3.38;3.05;;;18.60;99.90;;;;;;4225490;27;20260;-72
2022/01/11 08:28:44;;;;;;;4.40;3.00;;;18.70;99.90;;;;;;4228448;28;20722;-71
2022/01/11 08:30:46;;;;;;;5.15;3.50;;;18.80;99.90;;;;;;4227950;28;20229;-71
2022/01/11 08:32:49;;;;;;;3.25;2.80;;;18.90;99.90;;;;;;4224626;28;20302;-72
2022/01/11 08:34:51;;;;;;;4.72;3.10;;;18.90;99.90;;;;;;4226845;28;20286;-72
2022/01/11 08:36:55;;;;;;;4.18;3.30;;;19.00;99.90;;;;;;4217590;28;20632;-72
2022/01/11 08:38:59;;;;;;;4.43;3.10;;;18.80;99.90;;;;;;4226358;28;20246;-72
2022/01/11 08:41:01;;;;;;;5.38;3.67;;;18.90;99.90;;;;;;4231669;27;20214;-71
2022/01/11 08:43:04;;;;;;;3.97;3.28;;;19.10;99.90;;;;;;4224879;28;20258;-72
2022/01/11 08:45:08;;;;;;;6.05;3.47;;;19.10;99.80;;;;;;4218503;28;20270;-71
2022/01/11 08:47:10;;;;;;;5.60;3.30;;;19.20;99.70;;;;;;4224523;28;20267;-71
2022/01/11 08:49:13;;;;;;;4.45;3.60;;;19.00;99.40;;;;;;4225704;27;20210;-72
2022/01/11 08:51:15;;;;;;;6.55;3.45;;;19.10;99.20;;;;;;4222692;28;20318;-72
2022/01/11 08:53:18;;;;;;;4.25;3.00;;;19.10;99.50;;;;;;4224296;27;20222;-72
2022/01/11 08:55:21;;;;;;;4.68;3.35;;;19.20;99.60;;;;;;4219733;27;20649;-71
2022/01/11 08:57:24;;;;;;;4.35;3.15;;;19.20;99.90;;;;;;4220145;28;20622;-71
2022/01/11 08:59:26;;;;;;;4.70;3.15;;;19.30;99.90;;;;;;4223357;28;20214;-70
2022/01/11 09:01:31;;;;;;;5.63;3.00;;;19.40;99.80;;;;;;4224818;28;20210;-72
2022/01/11 09:03:33;;;;;;;5.93;3.30;;;19.50;99.60;;;;;;4223639;28;20723;-72
2022/01/11 09:05:35;;;;;;;5.40;2.90;;;19.60;99.60;;;;;;4222971;28;20217;-72
2022/01/11 09:07:38;;;;;;;4.18;3.38;;;19.60;99.50;;;;;;4225098;28;20210;-72
2022/01/11 09:09:40;;;;;;;5.07;3.63;;;19.60;99.60;;;;;;4224530;28;20255;-72
2022/01/11 09:11:44;;;;;;;4.72;3.20;;;19.70;99.70;;;;;;4225237;28;20214;-71
2022/01/11 09:13:46;;;;;;;3.80;3.05;;;19.70;99.70;;;;;;4224174;28;20222;-71
2022/01/11 09:15:48;;;;;;;3.90;3.25;;;19.70;99.70;;;;;;4215693;28;20238;-72
2022/01/11 09:17:51;;;;;;;3.55;3.00;;;19.70;99.70;;;;;;4219010;28;20638;-71
2022/01/11 09:19:53;;;;;;;3.85;3.03;;;19.80;99.60;;;;;;4222693;28;20242;-72
2022/01/11 09:21:55;;;;;;;3.42;2.90;;;19.80;99.50;;;;;;4221233;28;20276;-71
2022/01/11 09:24:00;;;;;;;4.07;3.45;;;19.90;99.40;;;;;;4219590;28;20214;-75
2022/01/11 09:26:03;;;;;;;4.47;3.10;;;19.80;99.20;;;;;;4224158;28;20727;-74
2022/01/11 09:28:06;;;;;;;4.70;4.18;;;19.60;99.60;;;;;;4227944;27;20221;-75
2022/01/11 09:30:13;;;;;;;4.70;3.83;;;19.70;99.40;;;;;;4223433;28;20215;-75
2022/01/11 09:32:16;;;;;;;4.50;3.38;;;19.80;99.50;;;;;;4218402;27;20241;-75
2022/01/11 09:34:18;;;;;;;4.70;3.13;;;19.90;99.60;;;;;;4229929;28;20213;-75
2022/01/11 09:36:20;;;;;;;5.93;3.45;;;20.00;99.50;;;;;;4229851;28;20213;-76
2022/01/11 09:38:23;;;;;;;3.55;3.25;;;20.10;99.30;;;;;;4219186;28;20206;-76
2022/01/11 09:40:26;;;;;;;4.18;3.28;;;20.20;99.40;;;;;;4229644;28;20217;-75
2022/01/11 09:42:29;;;;;;;5.50;3.75;;;20.20;99.40;;;;;;4231033;27;20281;-75
2022/01/11 09:44:34;;;;;;;5.38;3.63;;;20.20;99.10;;;;;;4229800;27;20217;-74
2022/01/11 09:46:36;;;;;;;3.42;2.75;;;20.20;99.20;;;;;;4230591;27;20669;-74
2022/01/11 09:48:39;;;;;;;3.72;3.33;;;20.20;99.30;;;;;;4227528;28;20239;-74
2022/01/11 09:50:42;;;;;;;6.22;3.28;;;20.20;99.40;;;;;;4227975;28;20202;-75
2022/01/11 09:52:44;;;;;;;4.47;3.22;;;20.20;99.40;;;;;;4229110;28;20599;-74
2022/01/11 09:54:48;;;;;;;5.32;3.55;;;20.30;99.20;;;;;;4227899;28;20337;-75
2022/01/11 09:56:51;;;;;;;4.20;3.28;;;20.30;99.00;;;;;;4227752;28;20278;-75
2022/01/11 09:58:53;;;;;;;5.07;3.00;;;20.40;99.10;;;;;;4229301;28;21607;-75
2022/01/11 10:00:57;;;;;;;3.55;3.00;;;20.40;99.00;;;;;;4228764;28;20614;-76
2022/01/11 10:02:59;;;;;;;4.57;3.47;;;20.40;99.20;;;;;;4228532;28;20703;-76
2022/01/11 10:05:05;;;;;;;5.97;3.67;;;20.40;99.20;;;;;;4226360;28;20256;-76
2022/01/11 10:07:09;;;;;;;4.38;3.55;;;20.30;99.20;;;;;;4228340;27;20287;-75
2022/01/11 10:09:16;;;;;;;5.18;3.33;;;20.40;99.20;;;;;;4225906;27;20206;-75
2022/01/11 10:11:34;;;;;;;4.47;3.30;;;20.40;99.20;;;;;;4227030;28;20218;-75
2022/01/11 10:13:38;;;;;;;5.72;3.53;;;20.60;99.10;;;;;;4230940;28;21071;-75
2022/01/11 10:15:40;;;;;;;5.05;3.50;;;20.60;99.00;;;;;;4226826;28;20291;-76
2022/01/11 10:17:46;;;;;;;4.60;3.47;;;20.60;98.90;;;;;;4233363;27;20214;-75
2022/01/11 10:19:50;;;;;;;4.65;3.60;;;20.60;98.90;;;;;;4230448;28;20213;-76
2022/01/11 10:21:54;;;;;;;4.05;3.25;;;20.60;99.00;;;;;;4230072;27;20260;-76
2022/01/11 10:23:57;;;;;;;5.07;3.35;;;20.50;98.90;;;;;;4229958;27;20273;-75
2022/01/11 10:25:59;;;;;;;3.80;3.40;;;20.50;98.90;;;;;;4229448;28;20206;-75
2022/01/11 10:28:06;;;;;;;4.20;2.90;;;20.60;99.00;;;;;;4228840;28;20210;-74
2022/01/11 10:30:11;;;;;;;5.40;3.25;;;20.70;98.80;;;;;;4230294;28;20286;-74
2022/01/11 10:32:18;;;;;;;5.28;3.40;;;20.70;99.00;;;;;;4229013;28;20259;-75
2022/01/11 10:34:31;;;;;;;4.68;3.33;;;20.80;98.80;;;;;;4229773;28;20214;-75
2022/01/11 10:36:48;;;;;;;4.82;3.60;;;20.80;98.70;;;;;;4225728;28;20241;-76
2022/01/11 10:38:50;;;;;;;4.97;3.17;;;20.70;98.40;;;;;;4226396;27;20210;-75
2022/01/11 10:40:53;;;;;;;4.13;3.10;;;20.70;98.90;;;;;;4228980;28;20227;-76
2022/01/11 10:42:57;;;;;;;5.35;3.50;;;20.70;98.90;;;;;;4229112;28;20576;-76
2022/01/11 10:45:01;;;;;;;5.63;3.40;;;20.70;99.10;;;;;;4225725;28;20267;-75